Time;durP1;ratioP1;P1;durP2;ratioP2;P2;SDS_P1;SDS_P2;PMS_P1;PMS_P2;Temp;Humidity;BMP_temperature;BMP_pressure;BME280_temperature;BME280_humidity;BME280_pressure;Samples;Min_cycle;Max_cycle;Signal;HPM_P1;HPM_P2
2023/01/14 00:01:40;;;;;;;11.63;4.00;;;;;;;5.59;88.14;98597.06;5065012;28;20395;-79
2023/01/14 00:04:05;;;;;;;8.50;3.33;;;;;;;5.53;88.74;98599.78;5067139;28;20029;-81
2023/01/14 00:06:35;;;;;;;10.32;4.50;;;;;;;5.58;88.34;98595.47;5067421;28;20024;-81
2023/01/14 00:09:03;;;;;;;16.02;5.22;;;;;;;5.54;88.27;98590.84;5071963;28;20449;-81
2023/01/14 00:11:47;;;;;;;7.68;3.70;;;;;;;5.47;88.22;98592.75;5042251;28;20032;-80
2023/01/14 00:14:21;;;;;;;12.85;3.78;;;;;;;5.58;88.65;98614.00;5038661;28;20036;-80
2023/01/14 00:16:47;;;;;;;7.13;3.75;;;;;;;5.49;89.02;98596.78;5068164;28;20027;-81
2023/01/14 00:19:13;;;;;;;15.38;4.18;;;;;;;5.32;88.47;98591.31;5066252;28;20024;-78
2023/01/14 00:21:40;;;;;;;14.07;4.07;;;;;;;5.39;89.04;98611.59;5060731;28;20487;-81
2023/01/14 00:24:06;;;;;;;11.82;3.53;;;;;;;5.50;88.79;98611.66;5063343;28;20025;-80
2023/01/14 00:26:32;;;;;;;13.65;3.72;;;;;;;5.50;88.41;98616.13;5065438;28;20403;-80
2023/01/14 00:28:57;;;;;;;11.45;3.83;;;;;;;5.53;88.24;98610.38;5042281;28;20027;-80
2023/01/14 00:31:26;;;;;;;7.47;3.33;;;;;;;5.53;88.00;98626.28;5048424;28;20161;-80
2023/01/14 00:33:52;;;;;;;15.50;3.33;;;;;;;5.49;88.46;98619.81;5058936;28;20092;-81
2023/01/14 00:36:20;;;;;;;8.00;3.20;;;;;;;5.45;88.64;98623.94;5060985;28;20028;-81
2023/01/14 00:38:46;;;;;;;13.57;4.43;;;;;;;5.53;89.04;98619.13;5067740;28;20101;-82
2023/01/14 00:41:20;;;;;;;11.88;3.20;;;;;;;5.52;88.90;98629.97;5036231;28;20068;-82
2023/01/14 00:43:48;;;;;;;6.90;3.20;;;;;;;5.49;89.15;98627.75;5029516;28;20476;-81
2023/01/14 00:46:16;;;;;;;7.18;3.35;;;;;;;5.52;88.51;98627.31;5077930;28;20056;-81
2023/01/14 00:48:42;;;;;;;6.97;2.80;;;;;;;5.53;88.45;98619.13;5066202;28;20051;-81
2023/01/14 00:51:08;;;;;;;8.93;3.83;;;;;;;5.43;88.39;98610.94;5061560;28;20025;-81
2023/01/14 00:53:35;;;;;;;15.63;5.35;;;;;;;5.48;89.23;98618.22;5070520;28;20040;-81
2023/01/14 00:56:00;;;;;;;19.15;5.75;;;;;;;5.50;88.77;98609.00;5052164;28;20036;-81
2023/01/14 00:58:26;;;;;;;13.15;4.20;;;;;;;5.48;89.18;98610.25;5029834;28;20365;-81
2023/01/14 01:00:52;;;;;;;12.43;4.57;;;;;;;5.53;89.81;98616.50;5065358;28;20037;-81
2023/01/14 01:03:18;;;;;;;15.68;4.43;;;;;;;5.57;88.80;98614.22;5049540;28;20041;-81
2023/01/14 01:05:44;;;;;;;7.22;4.18;;;;;;;5.53;88.98;98600.63;5063929;28;20031;-81
2023/01/14 01:08:13;;;;;;;12.30;4.40;;;;;;;5.50;89.36;98618.78;5046885;28;20865;-81
2023/01/14 01:10:38;;;;;;;8.70;4.57;;;;;;;5.50;89.44;98616.13;5038792;28;20060;-79
2023/01/14 01:13:04;;;;;;;12.30;5.05;;;;;;;5.52;89.74;98614.91;5032647;28;20488;-81
2023/01/14 01:15:34;;;;;;;12.48;4.30;;;;;;;5.49;89.55;98620.63;5048107;28;20475;-81
2023/01/14 01:18:00;;;;;;;14.05;5.03;;;;;;;5.57;90.21;98627.47;5051046;28;20035;-82
2023/01/14 01:20:26;;;;;;;13.90;4.35;;;;;;;5.43;89.50;98621.50;5063384;28;20024;-81
2023/01/14 01:22:51;;;;;;;11.45;3.53;;;;;;;5.54;89.40;98627.91;5031321;28;20029;-81
2023/01/14 01:25:17;;;;;;;12.27;4.07;;;;;;;5.44;89.08;98628.41;5046290;28;20032;-81
2023/01/14 01:27:42;;;;;;;6.47;3.20;;;;;;;5.44;89.88;98607.22;5051141;28;20468;-81
2023/01/14 01:30:10;;;;;;;9.07;4.75;;;;;;;5.48;89.16;98640.19;5043174;28;20199;-81
2023/01/14 01:32:35;;;;;;;16.67;4.25;;;;;;;5.41;89.38;98639.44;5040185;28;20044;-81
2023/01/14 01:35:01;;;;;;;9.10;3.70;;;;;;;5.42;89.83;98645.56;5043523;28;20021;-81
2023/01/14 01:37:27;;;;;;;13.00;4.50;;;;;;;5.42;90.35;98649.00;5032246;28;20036;-81
2023/01/14 01:39:53;;;;;;;7.45;2.75;;;;;;;5.48;89.64;98650.78;5072851;28;20105;-81
2023/01/14 01:42:22;;;;;;;12.95;3.80;;;;;;;5.42;89.86;98648.19;5063042;28;20531;-81
2023/01/14 01:44:47;;;;;;;13.88;3.22;;;;;;;5.46;89.75;98650.16;5067390;28;20040;-81
2023/01/14 01:47:13;;;;;;;11.00;3.50;;;;;;;5.45;90.09;98643.28;5048536;28;20025;-81
2023/01/14 01:49:40;;;;;;;14.25;3.33;;;;;;;5.45;89.20;98635.31;5051977;28;20041;-81
2023/01/14 01:52:15;;;;;;;5.18;2.35;;;;;;;5.40;89.97;98637.81;5060176;28;20020;-79
2023/01/14 01:54:48;;;;;;;11.07;3.13;;;;;;;5.43;89.36;98628.63;5048007;28;20026;-81
2023/01/14 01:57:16;;;;;;;6.63;3.15;;;;;;;5.36;90.10;98635.84;5068906;28;20029;-81
2023/01/14 01:59:46;;;;;;;8.02;2.97;;;;;;;5.43;89.72;98653.28;5067554;28;20098;-80
2023/01/14 02:02:11;;;;;;;4.93;2.60;;;;;;;5.35;90.00;98647.47;5046158;28;20106;-79
2023/01/14 02:04:37;;;;;;;12.05;4.07;;;;;;;5.32;89.87;98654.00;5042862;28;20041;-79
2023/01/14 02:07:02;;;;;;;10.05;3.05;;;;;;;5.36;89.66;98662.28;5058019;28;20395;-79
2023/01/14 02:09:28;;;;;;;10.10;3.88;;;;;;;5.38;89.99;98660.22;5050271;28;20024;-79
2023/01/14 02:11:56;;;;;;;15.05;3.50;;;;;;;5.50;89.08;98677.03;5034368;28;20449;-79
2023/01/14 02:14:31;;;;;;;9.50;3.13;;;;;;;5.47;89.63;98685.38;5050317;28;20119;-81
2023/01/14 02:17:16;;;;;;;6.90;2.58;;;;;;;5.53;89.03;98692.44;5067669;28;20519;-79
2023/01/14 02:20:07;;;;;;;7.27;3.40;;;;;;;5.53;89.33;98692.44;5002656;28;20087;-80
2023/01/14 02:23:01;;;;;;;9.07;3.35;;;;;;;5.42;89.73;98680.75;5069263;28;20020;-79
2023/01/14 02:25:50;;;;;;;8.15;2.83;;;;;;;5.56;89.93;98695.47;5057899;28;20021;-81
2023/01/14 02:28:49;;;;;;;10.00;3.03;;;;;;;5.55;88.62;98693.06;5055201;28;20031;-81
2023/01/14 02:31:18;;;;;;;10.95;2.95;;;;;;;5.43;89.29;98692.97;5066498;28;20115;-81
2023/01/14 02:34:05;;;;;;;9.80;3.03;;;;;;;5.49;89.44;98699.22;5054643;28;20119;-81
2023/01/14 02:37:24;;;;;;;8.88;3.88;;;;;;;5.42;89.69;98704.56;5062381;28;20082;-80
2023/01/14 02:40:07;;;;;;;9.45;3.15;;;;;;;5.46;89.09;98702.31;4988750;28;20042;-81
2023/01/14 02:45:31;;;;;;;14.57;3.60;;;;;;;5.43;89.37;98700.09;5063424;28;20040;-80
2023/01/14 02:47:59;;;;;;;21.23;3.78;;;;;;;5.40;89.87;98693.41;5067435;28;20052;-80
2023/01/14 02:50:25;;;;;;;11.98;3.15;;;;;;;5.35;88.88;98693.25;5049771;28;20056;-80
2023/01/14 02:52:51;;;;;;;10.90;4.30;;;;;;;5.36;89.29;98705.44;5072127;28;20071;-81
2023/01/14 02:55:26;;;;;;;10.55;3.08;;;;;;;5.33;89.64;98711.16;5067644;28;20159;-81
2023/01/14 02:58:06;;;;;;;8.13;3.03;;;;;;;5.35;88.79;98709.13;5070014;28;20029;-80
2023/01/14 03:00:37;;;;;;;10.88;3.22;;;;;;;5.27;89.89;98706.75;5065662;28;20024;-80
2023/01/14 03:03:37;;;;;;;9.18;2.55;;;;;;;5.38;89.37;98705.22;5063735;28;20491;-80
2023/01/14 03:06:17;;;;;;;8.40;3.03;;;;;;;5.24;89.41;98696.63;5072991;28;20078;-80
2023/01/14 03:08:58;;;;;;;10.07;2.80;;;;;;;5.37;89.68;98695.69;5053114;28;20414;-80
2023/01/14 03:11:59;;;;;;;11.85;4.05;;;;;;;5.35;89.04;98698.56;5069401;28;20028;-80
2023/01/14 03:14:32;;;;;;;15.73;3.88;;;;;;;5.27;89.14;98693.53;5035832;28;20511;-80
2023/01/14 03:17:06;;;;;;;8.88;2.72;;;;;;;5.24;88.86;98681.53;5059575;28;20029;-80
2023/01/14 03:19:37;;;;;;;13.05;3.45;;;;;;;5.28;88.52;98703.09;5063585;28;20063;-80
2023/01/14 03:22:05;;;;;;;12.32;3.15;;;;;;;5.25;89.09;98698.22;5053600;28;20119;-80
2023/01/14 03:24:43;;;;;;;12.73;3.95;;;;;;;5.34;88.47;98707.50;5043787;28;20120;-80
2023/01/14 03:27:18;;;;;;;12.77;2.95;;;;;;;5.30;89.20;98698.38;5067392;28;20025;-81
2023/01/14 03:29:48;;;;;;;9.63;3.60;;;;;;;5.30;88.72;98701.03;5035518;28;20025;-81
2023/01/14 03:32:30;;;;;;;12.68;4.05;;;;;;;5.23;89.65;98695.00;5080182;28;20017;-81
2023/01/14 03:35:12;;;;;;;7.35;3.58;;;;;;;5.38;88.90;98702.56;5064511;28;20163;-79
2023/01/14 03:37:42;;;;;;;10.60;3.05;;;;;;;5.35;88.28;98682.69;5071954;28;20370;-81
2023/01/14 03:40:12;;;;;;;21.83;4.30;;;;;;;5.35;88.67;98700.38;5049177;28;20503;-82
2023/01/14 03:42:44;;;;;;;13.90;3.53;;;;;;;5.43;88.46;98689.50;5064817;28;20055;-79
2023/01/14 03:45:14;;;;;;;14.50;3.83;;;;;;;5.44;88.87;98691.13;5073955;28;20080;-81
2023/01/14 03:47:41;;;;;;;15.85;4.38;;;;;;;5.42;88.73;98686.03;5066912;28;20450;-82
2023/01/14 03:50:12;;;;;;;13.85;3.25;;;;;;;5.31;88.95;98697.34;5065904;28;20025;-81
2023/01/14 03:52:52;;;;;;;7.20;3.25;;;;;;;5.33;89.39;98701.41;5059193;28;20033;-81
2023/01/14 03:55:30;;;;;;;11.30;4.63;;;;;;;5.35;89.50;98684.50;5065184;28;20339;-81
2023/01/14 03:58:06;;;;;;;10.95;3.45;;;;;;;5.43;88.98;98702.75;5081260;28;20037;-82
2023/01/14 04:00:50;;;;;;;8.77;3.80;;;;;;;5.45;88.66;98705.97;5068647;28;20087;-80
2023/01/14 04:03:17;;;;;;;12.25;3.97;;;;;;;5.37;89.49;98700.97;5069461;28;20116;-82
2023/01/14 04:05:42;;;;;;;14.38;4.93;;;;;;;5.32;89.50;98706.91;5074141;28;20032;-82
2023/01/14 04:08:08;;;;;;;10.55;3.17;;;;;;;5.18;90.38;98700.13;5037308;28;20451;-82
2023/01/14 04:10:34;;;;;;;11.00;4.13;;;;;;;5.18;90.45;98682.41;5052660;28;20089;-82
2023/01/14 04:15:43;;;;;;;10.70;2.92;;;;;;;5.30;89.54;98701.84;5067355;28;20039;-81
2023/01/14 04:18:09;;;;;;;12.02;3.40;;;;;;;5.25;89.53;98685.00;5049886;28;20036;-81
2023/01/14 04:20:34;;;;;;;17.58;4.05;;;;;;;5.15;90.19;98690.00;5053202;28;20028;-81
2023/01/14 04:22:59;;;;;;;19.17;3.95;;;;;;;5.36;89.40;98697.50;5018945;28;20045;-81
2023/01/14 04:25:25;;;;;;;10.75;4.00;;;;;;;5.20;89.72;98696.22;5063187;28;20469;-81
2023/01/14 04:27:50;;;;;;;15.60;3.70;;;;;;;5.04;89.96;98691.50;5042412;28;20116;-78
2023/01/14 04:30:16;;;;;;;7.78;3.40;;;;;;;5.12;90.39;98695.69;5049653;28;20120;-81
2023/01/14 04:32:41;;;;;;;12.20;3.30;;;;;;;5.13;89.33;98684.09;5072201;28;20473;-80
2023/01/14 04:35:07;;;;;;;14.52;4.30;;;;;;;5.16;89.95;98681.00;5054973;28;20063;-81
2023/01/14 04:37:32;;;;;;;13.93;3.25;;;;;;;5.28;89.32;98689.88;5036863;28;20123;-79
2023/01/14 04:39:58;;;;;;;9.38;3.40;;;;;;;5.24;89.25;98688.69;5036942;28;20043;-79
2023/01/14 04:42:26;;;;;;;15.48;3.97;;;;;;;5.08;89.67;98679.47;5064039;28;20090;-79
2023/01/14 04:44:53;;;;;;;15.82;3.35;;;;;;;5.12;89.09;98679.81;5047999;28;20028;-79
2023/01/14 04:47:18;;;;;;;13.38;3.85;;;;;;;5.26;88.77;98681.34;5046461;28;20943;-79
2023/01/14 04:49:43;;;;;;;16.40;4.20;;;;;;;5.18;89.23;98686.88;5049751;28;20079;-79
2023/01/14 04:52:09;;;;;;;8.80;3.63;;;;;;;5.01;89.84;98681.34;5029784;28;20024;-79
2023/01/14 04:54:34;;;;;;;14.95;3.75;;;;;;;5.02;89.13;98698.81;5037061;28;20040;-79
2023/01/14 04:56:59;;;;;;;15.05;4.28;;;;;;;5.09;89.73;98689.00;5071651;28;20024;-79
2023/01/14 04:59:25;;;;;;;14.27;4.15;;;;;;;5.15;89.10;98674.94;5050213;28;20111;-79
2023/01/14 05:01:50;;;;;;;12.00;3.60;;;;;;;5.22;88.88;98677.50;5054928;28;20029;-79
2023/01/14 05:04:16;;;;;;;16.33;3.60;;;;;;;4.90;89.35;98671.47;5063759;28;20071;-79
2023/01/14 05:06:41;;;;;;;9.05;3.47;;;;;;;5.16;88.64;98679.19;5028704;28;20420;-81
2023/01/14 05:09:07;;;;;;;10.77;3.10;;;;;;;4.97;89.88;98679.34;5050262;28;20476;-79
2023/01/14 05:11:32;;;;;;;18.02;3.70;;;;;;;5.03;89.02;98686.41;5079640;28;20028;-79
2023/01/14 05:13:57;;;;;;;10.75;3.30;;;;;;;4.97;89.11;98680.16;5052993;28;20095;-78
2023/01/14 05:16:23;;;;;;;11.65;4.05;;;;;;;5.06;88.48;98686.81;5055291;28;20040;-79
2023/01/14 05:18:49;;;;;;;7.93;2.90;;;;;;;4.99;88.74;98677.31;5034378;28;20032;-79
2023/01/14 05:21:14;;;;;;;11.05;3.05;;;;;;;5.14;89.00;98691.00;5032372;28;20086;-79
2023/01/14 05:23:40;;;;;;;11.00;3.33;;;;;;;5.05;88.97;98677.25;5071661;28;20043;-79
2023/01/14 05:26:06;;;;;;;12.18;3.80;;;;;;;4.89;89.08;98667.19;5046686;28;20036;-79
2023/01/14 05:28:32;;;;;;;12.07;3.13;;;;;;;4.90;88.60;98673.31;5078101;28;20040;-78
2023/01/14 05:30:57;;;;;;;9.63;3.20;;;;;;;4.69;89.78;98673.69;5051621;28;20039;-79
2023/01/14 05:33:23;;;;;;;14.65;3.90;;;;;;;4.39;90.23;98661.06;5043949;28;20435;-79
2023/01/14 05:35:48;;;;;;;7.50;3.10;;;;;;;4.76;90.28;98666.53;5032249;28;20029;-78
2023/01/14 05:38:13;;;;;;;6.82;2.47;;;;;;;4.68;90.49;98674.69;5051958;28;20024;-78
2023/01/14 05:40:39;;;;;;;13.10;3.05;;;;;;;4.90;89.39;98675.94;5046936;28;20037;-81
2023/01/14 05:45:48;;;;;;;6.85;3.30;;;;;;;4.90;89.00;98686.53;5062387;28;20036;-80
2023/01/14 05:48:17;;;;;;;12.20;2.85;;;;;;;4.90;89.83;98690.00;5086646;28;20388;-81
2023/01/14 05:50:42;;;;;;;14.13;3.30;;;;;;;4.82;89.29;98686.81;5067939;28;20033;-81
2023/01/14 05:53:08;;;;;;;15.25;3.78;;;;;;;4.83;89.41;98670.72;5030405;28;20033;-81
2023/01/14 05:55:36;;;;;;;17.67;3.17;;;;;;;4.97;88.62;98671.41;5033995;28;20025;-81
2023/01/14 05:58:04;;;;;;;18.02;4.60;;;;;;;5.03;88.41;98668.72;5031240;28;20078;-81
2023/01/14 06:08:34;;;;;;;18.23;3.83;;;;;;;4.73;89.79;98640.50;5066994;28;20025;-81
2023/01/14 06:11:00;;;;;;;22.00;4.10;;;;;;;4.81;89.92;98648.97;5067785;28;20419;-81
2023/01/14 06:13:26;;;;;;;15.10;3.90;;;;;;;4.76;89.55;98638.22;5057226;28;20047;-81
2023/01/14 06:15:52;;;;;;;17.80;4.03;;;;;;;4.87;89.55;98642.03;5067040;28;20028;-81
2023/01/14 06:18:22;;;;;;;12.65;3.78;;;;;;;4.85;88.74;98625.56;5054117;28;20046;-81
2023/01/14 06:20:53;;;;;;;9.07;3.22;;;;;;;4.82;89.34;98639.22;5054200;28;20120;-81
2023/01/14 06:23:21;;;;;;;23.92;4.03;;;;;;;4.70;89.03;98633.00;5050268;28;20028;-81
2023/01/14 06:25:49;;;;;;;20.27;4.70;;;;;;;4.79;89.33;98642.28;5036627;28;20024;-81
2023/01/14 06:28:15;;;;;;;11.70;3.28;;;;;;;4.64;89.18;98636.50;5062174;28;20033;-81
2023/01/14 06:30:42;;;;;;;27.33;4.28;;;;;;;4.75;89.24;98641.09;5079737;28;20054;-81
2023/01/14 06:33:07;;;;;;;15.43;3.47;;;;;;;4.81;89.13;98632.28;5065855;28;20034;-80
2023/01/14 06:35:34;;;;;;;18.33;3.42;;;;;;;4.71;89.17;98616.94;5049794;28;20028;-80
2023/01/14 06:37:59;;;;;;;22.17;3.85;;;;;;;4.73;89.10;98616.72;5075904;28;20060;-80
2023/01/14 06:40:25;;;;;;;14.75;4.50;;;;;;;4.68;89.22;98617.34;5039826;28;20432;-81
2023/01/14 06:42:54;;;;;;;16.35;3.88;;;;;;;4.74;89.05;98627.06;5059405;28;20508;-80
2023/01/14 06:45:19;;;;;;;16.90;3.70;;;;;;;4.70;89.35;98620.59;5044039;28;20049;-80
2023/01/14 06:47:46;;;;;;;22.77;4.53;;;;;;;4.51;88.86;98617.09;5051164;28;20526;-80
2023/01/14 06:50:11;;;;;;;19.88;4.68;;;;;;;4.48;89.44;98616.69;5073870;28;20440;-80
2023/01/14 06:52:37;;;;;;;15.63;4.82;;;;;;;4.31;90.09;98600.56;5039333;28;20033;-80
2023/01/14 06:55:02;;;;;;;22.10;4.25;;;;;;;4.72;89.39;98613.25;5067270;28;20056;-80
2023/01/14 06:57:28;;;;;;;12.18;3.75;;;;;;;4.40;90.42;98594.00;5067972;28;20036;-80
2023/01/14 06:59:53;;;;;;;24.52;4.25;;;;;;;4.52;89.44;98594.13;5034823;28;20029;-80
2023/01/14 07:02:19;;;;;;;24.05;4.80;;;;;;;4.62;89.86;98609.47;5032189;28;20028;-80
2023/01/14 07:04:44;;;;;;;16.23;3.65;;;;;;;4.52;89.02;98594.91;5042811;28;20024;-78
2023/01/14 07:07:10;;;;;;;17.02;5.40;;;;;;;4.61;88.68;98595.44;5042494;28;20161;-80
2023/01/14 07:09:36;;;;;;;19.60;4.00;;;;;;;4.50;89.08;98594.31;5042639;28;20027;-80
2023/01/14 07:12:02;;;;;;;20.23;4.50;;;;;;;4.27;89.11;98588.00;5063954;28;20028;-80
2023/01/14 07:14:28;;;;;;;16.88;5.35;;;;;;;4.60;88.99;98593.03;5079638;28;20058;-80
2023/01/14 07:16:53;;;;;;;13.32;3.55;;;;;;;4.64;89.35;98589.75;5066726;28;20037;-80
2023/01/14 07:19:18;;;;;;;14.27;3.85;;;;;;;4.46;90.38;98598.44;5036609;28;20032;-80
2023/01/14 07:21:43;;;;;;;17.85;4.18;;;;;;;4.28;89.52;98594.94;5040504;28;20491;-80
2023/01/14 07:24:10;;;;;;;15.43;3.90;;;;;;;4.58;89.73;98580.06;5042887;28;20534;-78
2023/01/14 07:26:36;;;;;;;16.23;4.68;;;;;;;4.29;89.67;98584.13;5055800;28;20400;-80
2023/01/14 07:29:01;;;;;;;12.93;3.45;;;;;;;4.07;90.52;98587.34;5046752;28;21232;-80
2023/01/14 07:31:27;;;;;;;26.65;4.45;;;;;;;4.29;89.50;98586.78;5078551;28;20028;-80
2023/01/14 07:33:52;;;;;;;14.48;5.45;;;;;;;4.41;90.26;98590.34;5043043;28;20040;-80
2023/01/14 07:36:17;;;;;;;32.58;4.88;;;;;;;4.40;89.74;98578.16;5061019;28;20086;-80
2023/01/14 07:38:43;;;;;;;14.48;4.00;;;;;;;4.24;89.86;98573.41;5042649;28;20086;-80
2023/01/14 07:41:17;;;;;;;18.85;4.28;;;;;;;4.32;89.44;98575.78;5020519;28;20036;-80
2023/01/14 07:43:43;;;;;;;20.70;3.72;;;;;;;4.42;89.20;98564.72;5075047;28;20055;-80
2023/01/14 07:46:09;;;;;;;15.00;3.50;;;;;;;4.46;88.71;98564.09;5068399;28;20020;-80
2023/01/14 07:48:34;;;;;;;15.40;3.60;;;;;;;4.69;88.95;98576.69;5050129;28;20653;-80
2023/01/14 07:51:02;;;;;;;10.63;3.20;;;;;;;4.62;88.55;98569.84;5063340;28;20025;-80
2023/01/14 07:53:28;;;;;;;6.85;3.25;;;;;;;4.55;88.62;98565.44;5037461;28;20123;-80
2023/01/14 07:55:53;;;;;;;15.30;3.63;;;;;;;4.63;88.65;98561.69;5036882;28;20119;-80
2023/01/14 07:58:21;;;;;;;14.32;4.05;;;;;;;4.63;89.05;98563.53;5052020;28;20029;-80
2023/01/14 08:00:47;;;;;;;18.48;3.53;;;;;;;4.63;88.62;98566.19;5066345;28;20032;-80
2023/01/14 08:03:12;;;;;;;22.98;4.80;;;;;;;4.63;88.81;98560.91;5062619;28;20033;-80
2023/01/14 08:05:38;;;;;;;12.77;3.65;;;;;;;4.57;88.85;98562.56;5025225;28;20051;-80
2023/01/14 08:08:03;;;;;;;14.10;3.85;;;;;;;4.69;88.65;98560.03;5060542;28;20052;-80
2023/01/14 08:10:29;;;;;;;12.20;3.83;;;;;;;4.55;89.04;98554.84;5031468;28;20051;-80
2023/01/14 08:12:54;;;;;;;22.27;5.68;;;;;;;4.65;87.99;98559.66;5035207;28;20115;-80
2023/01/14 08:15:19;;;;;;;22.55;4.55;;;;;;;4.47;89.18;98549.84;5048338;28;20043;-80
2023/01/14 08:17:45;;;;;;;15.60;2.67;;;;;;;4.60;89.16;98556.84;5043109;28;20033;-80
2023/01/14 08:20:11;;;;;;;8.95;3.65;;;;;;;4.54;88.88;98532.09;5047329;28;20456;-80
2023/01/14 08:22:37;;;;;;;20.13;5.20;;;;;;;4.57;88.45;98544.88;5072897;28;20045;-80
2023/01/14 08:25:03;;;;;;;16.63;3.92;;;;;;;4.70;88.52;98546.56;5045371;28;20036;-80
2023/01/14 08:27:29;;;;;;;18.30;4.38;;;;;;;4.58;88.68;98527.19;5080261;28;20459;-80
2023/01/14 08:29:55;;;;;;;19.95;4.20;;;;;;;4.69;89.32;98536.22;5029637;28;20043;-80
2023/01/14 08:32:21;;;;;;;14.35;3.88;;;;;;;4.76;88.75;98529.06;5063035;28;20073;-80
2023/01/14 08:34:46;;;;;;;26.08;4.60;;;;;;;4.70;88.58;98522.78;5046732;28;20492;-80
2023/01/14 08:37:11;;;;;;;17.77;3.85;;;;;;;4.76;89.13;98521.91;5034836;28;20037;-80
2023/01/14 08:39:37;;;;;;;15.50;3.83;;;;;;;4.69;88.68;98496.59;5049364;28;20089;-80
2023/01/14 08:42:03;;;;;;;14.95;3.95;;;;;;;4.74;88.74;98520.53;5061556;28;20039;-80
2023/01/14 08:44:28;;;;;;;13.90;3.25;;;;;;;4.77;89.22;98498.94;5060448;28;20115;-80
2023/01/14 08:46:54;;;;;;;20.30;4.22;;;;;;;4.90;88.61;98501.44;5048553;28;20024;-80
2023/01/14 08:49:19;;;;;;;17.35;4.45;;;;;;;4.81;89.09;98498.28;5031140;28;20304;-80
2023/01/14 08:51:44;;;;;;;15.65;4.47;;;;;;;4.89;88.29;98505.13;5039171;28;20077;-80
2023/01/14 08:54:10;;;;;;;20.08;5.38;;;;;;;4.85;88.61;98483.59;5045376;28;20396;-80
2023/01/14 08:56:35;;;;;;;15.98;3.53;;;;;;;4.96;88.50;98472.25;5041820;28;20135;-80
2023/01/14 08:59:01;;;;;;;21.17;5.50;;;;;;;4.72;88.29;98459.16;5048816;28;20055;-80
2023/01/14 09:01:27;;;;;;;18.48;3.08;;;;;;;4.84;88.79;98462.66;5053060;28;20380;-80
2023/01/14 09:03:57;;;;;;;22.20;5.05;;;;;;;4.88;88.51;98461.19;5048527;28;20081;-80
2023/01/14 09:06:22;;;;;;;18.65;3.80;;;;;;;4.74;88.90;98460.53;5057572;28;20033;-80
2023/01/14 09:17:10;;;;;;;;;;;;;;;4.89;88.51;98449.59;5060553;28;20378;-80
2023/01/14 09:19:53;;;;;;;20.15;5.10;;;;;;;4.88;88.60;98432.91;5045373;28;19916;-80
2023/01/14 09:22:25;;;;;;;23.00;3.65;;;;;;;4.91;87.86;98435.13;5060910;28;20052;-80
2023/01/14 09:24:51;;;;;;;21.63;4.07;;;;;;;4.90;88.51;98424.75;5060595;28;20119;-80
2023/01/14 09:27:17;;;;;;;18.15;3.97;;;;;;;4.85;88.12;98428.06;5032705;28;20170;-80
2023/01/14 09:29:42;;;;;;;19.90;4.32;;;;;;;4.97;88.95;98428.94;5096880;28;20032;-80
2023/01/14 09:32:09;;;;;;;24.85;3.80;;;;;;;5.06;88.61;98429.44;5051748;28;20035;-80
2023/01/14 09:34:38;;;;;;;7.35;3.33;;;;;;;5.17;87.82;98428.69;5030262;28;20032;-80
2023/01/14 09:37:03;;;;;;;16.20;4.20;;;;;;;5.07;87.83;98410.69;5046323;28;20688;-80
2023/01/14 09:39:28;;;;;;;17.17;4.03;;;;;;;5.13;88.78;98428.31;5057326;28;20074;-80
2023/01/14 09:41:58;;;;;;;21.77;4.07;;;;;;;5.03;88.22;98414.81;5067551;28;20056;-79
2023/01/14 09:44:24;;;;;;;17.48;5.05;;;;;;;5.09;88.16;98403.34;5022044;28;20126;-80
2023/01/14 09:46:53;;;;;;;11.27;2.95;;;;;;;5.13;88.32;98409.78;5058228;28;20504;-79
2023/01/14 09:49:24;;;;;;;13.05;3.80;;;;;;;5.17;88.07;98399.59;5057659;28;20028;-80
2023/01/14 09:52:14;;;;;;;17.23;3.88;;;;;;;5.25;87.96;98397.44;5039509;28;20061;-79
2023/01/14 09:55:27;;;;;;;14.20;3.35;;;;;;;5.22;88.63;98392.56;5042459;28;20083;-80
2023/01/14 09:57:56;;;;;;;14.80;3.45;;;;;;;5.30;88.57;98384.34;5051319;28;20040;-80
2023/01/14 10:00:43;;;;;;;11.20;4.45;;;;;;;5.18;88.97;98370.25;5060774;28;20044;-79
2023/01/14 10:03:24;;;;;;;15.25;5.22;;;;;;;5.11;88.32;98364.25;5064701;28;20418;-79
2023/01/14 10:06:01;;;;;;;10.27;2.67;;;;;;;5.16;89.16;98358.28;5053997;28;20032;-80
2023/01/14 10:08:33;;;;;;;17.45;3.85;;;;;;;5.25;89.13;98351.63;5052120;28;20709;-80
2023/01/14 10:11:00;;;;;;;17.92;5.47;;;;;;;4.97;89.32;98317.06;5067704;28;20431;-81
2023/01/14 10:13:40;;;;;;;22.13;4.60;;;;;;;5.17;88.84;98315.75;5070927;28;20106;-80
2023/01/14 10:16:24;;;;;;;16.60;4.70;;;;;;;5.14;89.20;98310.09;5070293;28;20374;-80
2023/01/14 10:19:01;;;;;;;15.00;3.80;;;;;;;5.18;88.99;98298.03;5070894;28;20396;-80
2023/01/14 10:21:46;;;;;;;11.88;4.38;;;;;;;5.18;89.09;98287.44;5072492;28;20153;-80
2023/01/14 10:24:17;;;;;;;13.88;3.38;;;;;;;5.22;88.56;98291.25;5035827;28;20021;-80
2023/01/14 10:26:48;;;;;;;14.55;4.10;;;;;;;5.17;90.30;98275.25;5060106;28;20322;-80
2023/01/14 10:29:16;;;;;;;16.08;4.93;;;;;;;5.30;89.49;98282.97;5080138;28;20024;-80
2023/01/14 10:31:53;;;;;;;12.63;4.35;;;;;;;5.30;89.17;98285.63;5041518;28;20511;-80
2023/01/14 10:34:26;;;;;;;11.93;4.05;;;;;;;5.25;89.47;98282.84;5056378;28;20032;-80
2023/01/14 10:36:51;;;;;;;19.05;5.88;;;;;;;5.32;89.55;98271.16;5065501;28;20056;-80
2023/01/14 10:39:17;;;;;;;18.35;3.67;;;;;;;5.20;89.70;98272.94;5066387;28;20129;-80
2023/01/14 10:41:48;;;;;;;9.93;4.05;;;;;;;5.39;88.75;98264.94;5054583;28;20029;-80
2023/01/14 10:44:22;;;;;;;16.67;5.57;;;;;;;5.30;89.32;98253.88;5052806;28;20032;-80
2023/01/14 10:46:47;;;;;;;17.90;5.20;;;;;;;5.39;89.30;98257.81;5054848;28;20020;-80
2023/01/14 10:49:53;;;;;;;21.92;5.38;;;;;;;5.42;90.10;98253.91;5068103;28;20028;-80
2023/01/14 10:52:32;;;;;;;15.52;6.72;;;;;;;5.41;89.94;98237.22;5057313;28;20053;-80
2023/01/14 10:55:06;;;;;;;21.33;8.02;;;;;;;5.28;90.67;98222.38;5082452;28;20032;-80
2023/01/14 10:57:34;;;;;;;26.02;6.30;;;;;;;5.37;90.43;98228.13;5069268;28;20025;-80
2023/01/14 11:00:01;;;;;;;19.13;5.97;;;;;;;5.40;89.93;98232.94;5089820;28;20409;-80
2023/01/14 11:02:26;;;;;;;23.15;5.72;;;;;;;5.45;89.43;98232.25;5062641;28;20173;-80
2023/01/14 11:04:52;;;;;;;17.27;6.57;;;;;;;5.33;89.81;98206.59;5063246;28;20028;-80
2023/01/14 11:07:26;;;;;;;19.25;6.22;;;;;;;5.48;89.37;98224.66;5066773;28;20103;-80
2023/01/14 11:09:54;;;;;;;20.10;5.43;;;;;;;5.39;89.70;98212.81;5051383;28;20021;-80
2023/01/14 11:12:27;;;;;;;16.23;5.97;;;;;;;5.17;89.65;98182.69;5071830;28;20067;-80
2023/01/14 11:14:53;;;;;;;18.90;6.38;;;;;;;5.35;89.94;98187.06;5046106;28;20090;-80
2023/01/14 11:17:25;;;;;;;18.80;5.70;;;;;;;5.45;89.65;98196.00;5071385;28;20483;-79
2023/01/14 11:19:51;;;;;;;16.58;5.18;;;;;;;5.40;90.51;98193.25;5079471;28;20032;-80
2023/01/14 11:22:18;;;;;;;21.00;5.38;;;;;;;5.40;89.77;98179.19;5058668;28;20039;-80
2023/01/14 11:24:46;;;;;;;15.18;5.03;;;;;;;5.44;90.09;98181.16;5069860;28;20052;-80
2023/01/14 11:27:19;;;;;;;19.88;4.75;;;;;;;5.39;89.78;98178.41;5039065;28;20021;-79
2023/01/14 11:29:56;;;;;;;19.25;6.88;;;;;;;5.52;89.40;98180.00;5055074;28;20346;-80
2023/01/14 11:32:29;;;;;;;12.60;5.32;;;;;;;5.40;89.95;98165.97;5048037;28;20074;-80
2023/01/14 11:35:00;;;;;;;24.42;5.10;;;;;;;5.39;89.40;98156.44;5072922;28;20278;-80
2023/01/14 11:37:53;;;;;;;24.00;4.55;;;;;;;5.44;90.08;98140.69;5078292;28;20025;-80
2023/01/14 11:41:28;;;;;;;13.00;4.15;;;;;;;5.43;89.73;98137.22;5053459;28;20087;-79
2023/01/14 11:43:13;;;;;;;11.00;3.60;;;;;;;5.52;89.16;98138.47;5070734;28;20035;-79
2023/01/14 11:45:38;;;;;;;13.90;4.28;;;;;;;5.58;89.07;98128.78;5050739;28;20385;-79
2023/01/14 11:48:23;;;;;;;7.90;3.58;;;;;;;5.43;90.01;98117.88;5065669;28;20016;-79
2023/01/14 11:51:02;;;;;;;21.27;4.38;;;;;;;5.44;89.60;98104.41;5059394;28;20457;-79
2023/01/14 11:53:46;;;;;;;7.50;3.47;;;;;;;5.47;89.98;98084.63;5036110;28;20043;-79
2023/01/14 11:56:16;;;;;;;9.93;4.22;;;;;;;5.50;89.80;98070.94;5056229;28;20387;-79
2023/01/14 11:58:42;;;;;;;24.10;5.68;;;;;;;5.45;90.19;98065.53;5058500;28;20028;-79
2023/01/14 12:01:27;;;;;;;17.38;4.68;;;;;;;5.45;90.39;98062.88;5051529;28;20032;-80
2023/01/14 12:04:00;;;;;;;15.82;4.07;;;;;;;5.36;91.13;98059.00;5073097;28;20025;-80
2023/01/14 12:06:38;;;;;;;11.25;4.63;;;;;;;5.40;90.37;98039.78;5050283;28;20424;-80
2023/01/14 12:09:05;;;;;;;13.35;4.80;;;;;;;5.36;90.59;98028.06;5065206;28;20028;-80
2023/01/14 12:11:58;;;;;;;17.70;5.60;;;;;;;5.33;91.58;98024.03;5083767;28;20042;-80